createdAt,value
2022-12-17T00:00:01.777Z,-8.48
2022-12-17T00:02:49.928Z,-8.57
2022-12-17T00:05:35.359Z,-8.55
2022-12-17T00:08:20.979Z,-8.47
2022-12-17T00:11:06.449Z,-8.49
2022-12-17T00:13:52.166Z,-8.43
2022-12-17T00:16:37.991Z,-8.37
2022-12-17T00:19:23.544Z,-8.35
2022-12-17T00:22:09.740Z,-8.31
2022-12-17T00:24:56.401Z,-8.22
2022-12-17T00:27:41.982Z,-8.19
2022-12-17T00:30:31.737Z,-8.15
2022-12-17T00:33:17.416Z,-8.17
2022-12-17T00:36:02.853Z,-8.12
2022-12-17T00:38:48.658Z,-8.16
2022-12-17T00:41:34.125Z,-8.20
2022-12-17T00:44:19.621Z,-8.22
2022-12-17T00:47:05.482Z,-8.33
2022-12-17T00:49:51.909Z,-8.38
2022-12-17T00:52:37.602Z,-8.44
2022-12-17T00:55:23.601Z,-8.41
2022-12-17T00:58:12.661Z,-8.41
2022-12-17T01:00:58.008Z,-8.43
2022-12-17T01:03:43.580Z,-8.45
2022-12-17T01:06:29.204Z,-8.43
2022-12-17T01:09:14.993Z,-8.40
2022-12-17T01:12:00.718Z,-8.42
2022-12-17T01:14:46.373Z,-8.33
2022-12-17T01:17:31.905Z,-8.36
2022-12-17T01:20:22.002Z,-8.35
2022-12-17T01:23:08.463Z,-8.33
2022-12-17T01:25:53.911Z,-8.30
2022-12-17T01:28:42.752Z,-8.38
2022-12-17T01:31:34.277Z,-8.38
2022-12-17T01:34:20.989Z,-8.48
2022-12-17T01:37:06.675Z,-8.22
2022-12-17T01:39:52.264Z,-8.29
2022-12-17T01:42:37.947Z,-8.28
2022-12-17T01:45:23.963Z,-8.31
2022-12-17T01:48:14.715Z,-8.21
2022-12-17T01:51:02.427Z,-8.23
2022-12-17T01:53:49.565Z,-8.25
2022-12-17T01:56:35.812Z,-8.20
2022-12-17T01:59:22.005Z,-8.27
2022-12-17T02:02:07.803Z,-8.24
2022-12-17T02:04:53.748Z,-8.36
2022-12-17T02:07:48.046Z,-8.38
2022-12-17T02:10:48.695Z,-8.54
2022-12-17T02:13:37.255Z,-8.65
2022-12-17T02:20:38.068Z,-8.82
2022-12-17T02:23:23.590Z,-8.89
2022-12-17T02:26:12.094Z,-8.89
2022-12-17T02:29:01.166Z,-8.91
2022-12-17T02:31:48.237Z,-8.94
2022-12-17T02:34:33.909Z,-8.97
2022-12-17T02:37:19.538Z,-8.99
2022-12-17T02:40:05.241Z,-8.97
2022-12-17T02:42:52.879Z,-9.01
2022-12-17T02:45:38.715Z,-9.09
2022-12-17T02:48:26.187Z,-9.19
2022-12-17T02:51:11.878Z,-9.14
2022-12-17T02:54:04.711Z,-9.15
2022-12-17T02:56:51.218Z,-9.12
2022-12-17T02:59:36.878Z,-9.15
2022-12-17T03:02:29.894Z,-9.17
2022-12-17T03:05:43.273Z,-9.19
2022-12-17T03:08:20.711Z,-9.23
2022-12-17T03:11:06.195Z,-9.30
2022-12-17T03:13:51.687Z,-9.41
2022-12-17T03:16:40.357Z,-9.40
2022-12-17T03:19:27.636Z,-9.37
2022-12-17T03:22:14.198Z,-9.35
2022-12-17T03:24:59.665Z,-9.37
2022-12-17T03:27:45.227Z,-9.39
2022-12-17T03:30:35.556Z,-9.36
2022-12-17T03:33:21.728Z,-9.37
2022-12-17T03:36:07.086Z,-9.38
2022-12-17T03:38:52.777Z,-9.34
2022-12-17T03:41:38.400Z,-9.28
2022-12-17T03:44:24.034Z,-9.24
2022-12-17T03:47:09.613Z,-9.22
2022-12-17T03:49:55.365Z,-9.16
2022-12-17T03:52:41.008Z,-9.03
2022-12-17T03:55:26.586Z,-9.15
2022-12-17T03:58:25.862Z,-9.17
2022-12-17T04:01:13.071Z,-9.19
2022-12-17T04:03:58.805Z,-9.28
2022-12-17T04:06:44.482Z,-9.35
2022-12-17T04:09:30.251Z,-9.30
2022-12-17T04:12:16.067Z,-9.23
2022-12-17T04:15:01.613Z,-9.24
2022-12-17T04:17:47.316Z,-9.22
2022-12-17T04:20:32.791Z,-9.34
2022-12-17T04:23:18.458Z,-9.37
2022-12-17T04:26:03.868Z,-9.38
2022-12-17T04:28:49.417Z,-9.44
2022-12-17T04:31:35.163Z,-9.39
2022-12-17T04:34:20.697Z,-9.47
2022-12-17T04:37:06.229Z,-9.65
2022-12-17T04:39:51.836Z,-9.69
2022-12-17T04:42:37.832Z,-9.79
2022-12-17T04:45:23.489Z,-9.74
2022-12-17T04:48:09.012Z,-9.70
2022-12-17T04:50:54.294Z,-9.75
2022-12-17T04:53:39.983Z,-9.78
2022-12-17T04:56:25.544Z,-9.84
2022-12-17T04:59:11.147Z,-9.88
2022-12-17T05:01:56.810Z,-9.90
2022-12-17T05:04:42.264Z,-9.95
2022-12-17T05:07:27.950Z,-9.99
2022-12-17T05:10:13.426Z,-9.99
2022-12-17T05:12:59.185Z,-9.98
2022-12-17T05:15:49.751Z,-9.99
2022-12-17T05:18:38.489Z,-9.99
2022-12-17T05:21:23.902Z,-10.01
2022-12-17T05:24:09.609Z,-10.03
2022-12-17T05:26:55.096Z,-10.02
2022-12-17T05:29:42.733Z,-10.21
2022-12-17T05:32:28.542Z,-9.99
2022-12-17T05:35:13.965Z,-10.11
2022-12-17T05:37:59.671Z,-10.11
2022-12-17T05:40:45.229Z,-10.12
2022-12-17T05:43:31.599Z,-10.20
2022-12-17T05:46:17.258Z,-10.27
2022-12-17T05:49:02.778Z,-10.20
2022-12-17T05:51:48.450Z,-10.29
2022-12-17T05:54:34.052Z,-10.30
2022-12-17T05:57:19.677Z,-10.27
2022-12-17T06:00:05.297Z,-10.21
2022-12-17T06:02:57.964Z,-10.17
2022-12-17T06:05:43.718Z,-10.16
2022-12-17T06:08:29.042Z,-10.14
2022-12-17T06:11:16.805Z,-10.12
2022-12-17T06:14:02.328Z,-10.16
2022-12-17T06:16:47.951Z,-10.16
2022-12-17T06:19:33.459Z,-10.10
2022-12-17T06:22:19.703Z,-10.05
2022-12-17T06:25:05.547Z,-10.08
2022-12-17T06:27:50.881Z,-10.07
2022-12-17T06:30:36.513Z,-10.01
2022-12-17T06:33:25.744Z,-10.07
2022-12-17T06:36:18.097Z,-10.04
2022-12-17T06:39:07.292Z,-9.88
2022-12-17T06:41:52.708Z,-9.92
2022-12-17T06:44:38.431Z,-9.82
2022-12-17T06:47:24.033Z,-9.91
2022-12-17T06:50:09.680Z,-9.80
2022-12-17T06:52:55.230Z,-9.73
2022-12-17T06:55:40.779Z,-9.71
2022-12-17T06:58:27.237Z,-9.71
2022-12-17T07:01:12.907Z,-9.69
2022-12-17T07:03:58.305Z,-9.62
2022-12-17T07:06:44.117Z,-9.59
2022-12-17T07:09:29.719Z,-9.59
2022-12-17T07:12:15.470Z,-9.62
2022-12-17T07:15:00.818Z,-9.50
2022-12-17T07:17:46.431Z,-9.45
2022-12-17T07:20:32.085Z,-9.34
2022-12-17T07:23:17.892Z,-9.34
2022-12-17T07:26:03.278Z,-9.33
2022-12-17T07:28:48.857Z,-9.41
2022-12-17T07:31:34.630Z,-9.30
2022-12-17T07:34:20.171Z,-9.23
2022-12-17T07:37:05.776Z,-9.28
2022-12-17T07:39:51.624Z,-9.18
2022-12-17T07:42:37.249Z,-9.17
2022-12-17T07:45:22.973Z,-9.09
2022-12-17T07:48:12.157Z,-9.02
2022-12-17T07:50:57.413Z,-9.11
2022-12-17T07:53:43.015Z,-9.09
2022-12-17T07:56:28.660Z,-9.02
2022-12-17T07:59:14.206Z,-9.00
2022-12-17T08:01:59.981Z,-9.06
2022-12-17T08:04:45.335Z,-9.05
2022-12-17T08:07:30.902Z,-8.99
2022-12-17T08:10:16.511Z,-9.02
2022-12-17T08:13:14.214Z,-8.88
2022-12-17T08:16:00.246Z,-8.90
2022-12-17T08:18:45.832Z,-8.93
2022-12-17T08:21:31.494Z,-8.83
2022-12-17T08:24:17.092Z,-8.68
2022-12-17T08:27:02.643Z,-8.58
2022-12-17T08:29:48.129Z,-8.56
2022-12-17T08:32:33.608Z,-8.71
2022-12-17T08:35:19.240Z,-9.65
2022-12-17T08:38:04.920Z,-8.63
2022-12-17T08:40:50.501Z,-8.78
2022-12-17T08:43:36.429Z,-8.72
2022-12-17T08:46:22.092Z,-8.61
2022-12-17T08:49:07.841Z,-8.41
2022-12-17T08:51:53.314Z,-8.37
2022-12-17T08:54:38.995Z,-8.13
2022-12-17T08:57:32.022Z,-8.10
2022-12-17T09:00:17.630Z,-8.01
2022-12-17T09:03:03.234Z,-7.93
2022-12-17T09:05:48.673Z,-7.84
2022-12-17T09:08:34.173Z,-7.90
2022-12-17T09:11:19.833Z,-7.81
2022-12-17T09:14:05.495Z,-7.83
2022-12-17T09:16:51.248Z,-7.67
2022-12-17T09:19:36.717Z,-7.58
2022-12-17T09:22:22.353Z,-7.51
2022-12-17T09:25:07.779Z,-7.53
2022-12-17T09:27:53.499Z,-7.29
2022-12-17T09:30:39.066Z,-7.25
2022-12-17T09:33:24.507Z,-7.35
2022-12-17T09:36:10.202Z,-7.35
2022-12-17T09:38:55.867Z,-7.24
2022-12-17T09:41:51.510Z,-7.39
2022-12-17T09:44:53.217Z,-7.09
2022-12-17T09:47:38.899Z,-6.75
2022-12-17T09:50:30.806Z,-6.87
2022-12-17T09:53:17.422Z,-6.61
2022-12-17T09:56:05.702Z,-6.62
2022-12-17T09:58:53.899Z,-6.44
2022-12-17T10:01:39.755Z,-6.41
2022-12-17T10:04:29.707Z,-6.33
2022-12-17T10:07:15.297Z,-6.27
2022-12-17T10:10:00.824Z,-6.17
2022-12-17T10:12:46.424Z,-6.05
2022-12-17T10:15:33.245Z,-6.06
2022-12-17T10:18:26.262Z,-6.12
2022-12-17T10:21:20.020Z,-5.93
2022-12-17T10:24:05.882Z,-5.86
2022-12-17T10:26:52.345Z,-5.85
2022-12-17T10:29:45.474Z,-5.69
2022-12-17T10:32:32.594Z,-5.51
2022-12-17T10:35:18.296Z,-5.49
2022-12-17T10:38:03.794Z,-5.57
2022-12-17T10:40:51.499Z,-5.37
2022-12-17T10:43:50.253Z,-5.33
2022-12-17T10:46:46.549Z,-5.19
2022-12-17T10:49:42.535Z,-5.13
2022-12-17T10:52:57.613Z,-5.04
2022-12-17T10:55:45.498Z,-4.90
2022-12-17T10:58:35.398Z,-4.88
2022-12-17T11:01:21.773Z,-4.84
2022-12-17T11:04:09.201Z,-4.69
2022-12-17T11:07:07.012Z,-4.61
2022-12-17T11:10:08.645Z,-4.48
2022-12-17T11:13:02.076Z,-4.56
2022-12-17T11:15:54.809Z,-4.48
2022-12-17T11:18:47.311Z,-4.34
2022-12-17T11:21:39.120Z,-4.18
2022-12-17T11:24:29.702Z,-4.15
2022-12-17T11:27:16.406Z,-4.09
2022-12-17T11:30:01.959Z,-3.96
2022-12-17T11:32:55.218Z,-3.90
2022-12-17T11:36:01.502Z,-3.72
2022-12-17T11:39:09.421Z,-3.75
2022-12-17T11:42:14.153Z,-3.67
2022-12-17T11:45:09.418Z,-3.54
2022-12-17T11:48:04.366Z,-3.38
2022-12-17T11:50:56.359Z,-3.28
2022-12-17T11:54:08.100Z,-3.19
2022-12-17T11:57:04.816Z,-3.14
2022-12-17T11:59:57.007Z,-3.03
2022-12-17T12:02:53.873Z,-2.94
2022-12-17T12:05:49.814Z,-2.89
2022-12-17T12:08:44.868Z,-2.82
2022-12-17T12:11:51.430Z,-2.74
2022-12-17T12:14:55.875Z,-2.68
2022-12-17T12:17:51.569Z,-2.69
2022-12-17T12:20:37.107Z,-2.59
2022-12-17T12:23:25.912Z,-2.53
2022-12-17T12:26:31.520Z,-2.44
2022-12-17T12:29:35.990Z,-2.36
2022-12-17T12:32:26.030Z,-2.27
2022-12-17T12:35:13.079Z,-2.19
2022-12-17T12:37:58.953Z,-2.10
2022-12-17T12:40:53.779Z,-2.05
2022-12-17T12:43:42.387Z,-2.02
2022-12-17T12:46:34.586Z,-1.95
2022-12-17T12:49:20.237Z,-1.94
2022-12-17T12:52:06.387Z,-1.95
2022-12-17T12:55:04.160Z,-1.81
2022-12-17T12:57:54.124Z,-1.68
2022-12-17T13:00:42.901Z,-1.65
2022-12-17T13:03:43.840Z,-1.68
2022-12-17T13:06:11.868Z,-1.60
2022-12-17T13:08:39.104Z,-1.60
2022-12-17T13:11:11.077Z,-1.49
2022-12-17T13:13:55.645Z,-1.45
2022-12-17T13:16:31.677Z,-1.43
2022-12-17T13:19:03.218Z,-1.31
2022-12-17T13:21:31.459Z,-1.25
2022-12-17T13:23:58.895Z,-1.23
2022-12-17T13:26:41.285Z,-1.19
2022-12-17T13:29:13.131Z,-1.20
2022-12-17T13:31:51.097Z,-1.22
2022-12-17T13:34:23.197Z,-1.17
2022-12-17T13:36:49.989Z,-1.16
2022-12-17T13:39:25.906Z,-1.12
2022-12-17T13:41:53.384Z,-1.14
2022-12-17T13:44:25.297Z,-1.11
2022-12-17T13:46:53.513Z,-1.20
2022-12-17T13:49:20.335Z,-1.15
2022-12-17T13:51:47.634Z,-1.20
2022-12-17T13:54:16.120Z,-1.16
2022-12-17T13:56:42.976Z,-1.19
2022-12-17T13:59:20.321Z,-1.17
2022-12-17T14:01:48.904Z,-1.16
2022-12-17T14:04:22.924Z,-1.17
2022-12-17T14:06:51.533Z,-1.13
2022-12-17T14:09:19.704Z,-1.18
2022-12-17T14:12:05.415Z,-1.15
2022-12-17T14:14:33.827Z,-1.17
2022-12-17T14:17:01.047Z,-1.16
2022-12-17T14:19:29.057Z,-0.72
2022-12-17T14:21:56.483Z,-0.75
2022-12-17T14:24:27.066Z,-0.66
2022-12-17T14:26:55.459Z,0.15
2022-12-17T14:29:23.607Z,-0.16
2022-12-17T14:32:01.114Z,-0.66
2022-12-17T14:34:28.002Z,-1.01
2022-12-17T14:36:56.536Z,-1.20
2022-12-17T14:39:26.362Z,-1.38
2022-12-17T14:42:12.830Z,-1.49
2022-12-17T14:44:51.146Z,-1.63
2022-12-17T14:47:23.503Z,-1.73
2022-12-17T14:49:55.841Z,-1.80
2022-12-17T14:52:28.134Z,-1.83
2022-12-17T14:54:55.197Z,-1.95
2022-12-17T14:57:22.782Z,-1.98
2022-12-17T14:59:50.608Z,-2.03
2022-12-17T15:02:26.663Z,-2.09
2022-12-17T15:04:56.416Z,-2.11
2022-12-17T15:07:25.283Z,-2.17
2022-12-17T15:09:53.139Z,-2.28
2022-12-17T15:12:21.012Z,-2.30
2022-12-17T15:14:48.112Z,-2.40
2022-12-17T15:17:15.417Z,-2.48
2022-12-17T15:19:42.465Z,-2.54
2022-12-17T15:22:13.992Z,-2.54
2022-12-17T15:24:40.840Z,-2.64
2022-12-17T15:27:09.416Z,-2.68
2022-12-17T15:29:36.283Z,-2.67
2022-12-17T15:32:03.465Z,-2.69
2022-12-17T15:34:30.336Z,-2.72
2022-12-17T15:36:57.156Z,-2.81
2022-12-17T15:39:23.985Z,-2.89
2022-12-17T15:42:09.599Z,-2.95
2022-12-17T15:44:36.395Z,-3.02
2022-12-17T15:47:03.205Z,-3.14
2022-12-17T15:49:30.024Z,-3.21
2022-12-17T15:51:56.811Z,-3.29
2022-12-17T15:54:25.084Z,-3.31
2022-12-17T15:56:53.425Z,-3.38
2022-12-17T15:59:20.295Z,-3.42
2022-12-17T16:01:47.364Z,-3.44
2022-12-17T16:04:20.296Z,-3.48
2022-12-17T16:06:51.489Z,-3.59
2022-12-17T16:09:18.316Z,-3.59
2022-12-17T16:11:45.339Z,-3.67
2022-12-17T16:14:12.160Z,-3.72
2022-12-17T16:16:38.947Z,-3.69
2022-12-17T16:19:05.866Z,-3.71
2022-12-17T16:21:32.658Z,-3.78
2022-12-17T16:23:59.583Z,-3.84
2022-12-17T16:26:26.646Z,-3.96
2022-12-17T16:28:53.467Z,-4.00
2022-12-17T16:31:20.315Z,-3.97
2022-12-17T16:33:48.116Z,-4.02
2022-12-17T16:36:16.358Z,-4.10
2022-12-17T16:39:01.343Z,-4.12
2022-12-17T16:41:28.183Z,-4.20
2022-12-17T16:43:55.145Z,-4.27
2022-12-17T16:46:26.808Z,-4.33
2022-12-17T16:48:54.399Z,-4.42
2022-12-17T16:51:28.455Z,-4.49
2022-12-17T16:53:57.090Z,-4.54
2022-12-17T16:56:25.614Z,-4.59
2022-12-17T16:58:52.665Z,-4.60
2022-12-17T17:01:20.687Z,-4.56
2022-12-17T17:03:47.822Z,-4.63
2022-12-17T17:06:15.599Z,-4.66
2022-12-17T17:08:42.850Z,-4.66
2022-12-17T17:11:21.260Z,-4.74
2022-12-17T17:13:49.528Z,-4.86
2022-12-17T17:16:17.199Z,-4.91
2022-12-17T17:18:44.160Z,-4.80
2022-12-17T17:21:20.284Z,-4.84
2022-12-17T17:23:48.393Z,-4.93
2022-12-17T17:26:15.805Z,-4.98
2022-12-17T17:28:42.719Z,-4.95
2022-12-17T17:31:11.291Z,-5.05
2022-12-17T17:33:39.496Z,-5.08
2022-12-17T17:36:07.728Z,-5.11
2022-12-17T17:38:35.934Z,-5.20
2022-12-17T17:41:03.433Z,-5.18
2022-12-17T17:43:30.492Z,-5.24
2022-12-17T17:46:04.338Z,-5.30
2022-12-17T17:48:34.875Z,-5.38
2022-12-17T17:51:07.196Z,-5.43
2022-12-17T17:53:34.426Z,-5.41
2022-12-17T17:56:14.687Z,-6.62
2022-12-17T17:58:42.609Z,-5.47
2022-12-17T18:01:10.828Z,-5.52
2022-12-17T18:03:38.056Z,-5.52
2022-12-17T18:06:07.069Z,-5.59
2022-12-17T18:08:35.316Z,-5.52
2022-12-17T18:11:03.189Z,-5.49
2022-12-17T18:13:48.463Z,-5.57
2022-12-17T18:16:15.849Z,-5.48
2022-12-17T18:18:42.687Z,-5.50
2022-12-17T18:21:11.202Z,-6.22
2022-12-17T18:23:38.217Z,-5.69
2022-12-17T18:26:12.692Z,-5.75
2022-12-17T18:28:42.028Z,-5.84
2022-12-17T18:31:13.418Z,-5.86
2022-12-17T18:33:41.747Z,-5.89
2022-12-17T18:36:09.797Z,-5.70
2022-12-17T18:38:37.139Z,-5.70
2022-12-17T18:41:29.998Z,-5.88
2022-12-17T18:43:58.438Z,-5.82
2022-12-17T18:46:26.177Z,-6.09
2022-12-17T18:48:53.663Z,-6.05
2022-12-17T18:51:21.417Z,-6.23
2022-12-17T18:53:49.048Z,-6.29
2022-12-17T18:56:31.737Z,-6.30
2022-12-17T18:59:02.897Z,-6.38
2022-12-17T19:01:31.755Z,-6.40
2022-12-17T19:04:01.179Z,-6.42
2022-12-17T19:06:28.329Z,-6.47
2022-12-17T19:08:55.132Z,-6.45
2022-12-17T19:11:22.400Z,-6.27
2022-12-17T19:13:49.738Z,-6.33
2022-12-17T19:16:18.402Z,-6.39
2022-12-17T19:18:45.661Z,-6.47
2022-12-17T19:21:14.906Z,-6.49
2022-12-17T19:23:42.099Z,-6.60
2022-12-17T19:26:10.122Z,-6.71
2022-12-17T19:28:37.905Z,-6.74
2022-12-17T19:31:05.054Z,-6.75
2022-12-17T19:33:31.899Z,-6.76
2022-12-17T19:36:01.101Z,-6.76
2022-12-17T19:38:28.968Z,-6.87
2022-12-17T19:40:55.780Z,-6.88
2022-12-17T19:43:24.672Z,-7.03
2022-12-17T19:45:51.531Z,-7.01
2022-12-17T19:48:18.378Z,-6.97
2022-12-17T19:50:55.087Z,-7.01
2022-12-17T19:53:27.063Z,-7.02
2022-12-17T19:55:55.403Z,-7.05
2022-12-17T19:58:23.199Z,-7.05
2022-12-17T20:00:50.421Z,-7.05
2022-12-17T20:03:17.879Z,-7.06
2022-12-17T20:05:45.658Z,-7.07
2022-12-17T20:08:12.681Z,-7.11
2022-12-17T20:10:39.606Z,-7.61
2022-12-17T20:13:06.504Z,-7.20
2022-12-17T20:15:33.333Z,-7.26
2022-12-17T20:18:00.123Z,-7.29
2022-12-17T20:20:26.987Z,-7.32
2022-12-17T20:22:53.765Z,-7.29
2022-12-17T20:25:20.606Z,-7.39
2022-12-17T20:27:47.448Z,-7.44
2022-12-17T20:30:14.290Z,-7.52
2022-12-17T20:32:41.056Z,-7.61
2022-12-17T20:35:08.433Z,-7.67
2022-12-17T20:37:35.272Z,-7.67
2022-12-17T20:40:02.128Z,-7.70
2022-12-17T20:42:28.940Z,-7.72
2022-12-17T20:44:56.912Z,-7.70
2022-12-17T20:47:23.780Z,-7.73
2022-12-17T20:49:50.571Z,-7.68
2022-12-17T20:52:17.527Z,-7.72
2022-12-17T20:54:44.838Z,-7.77
2022-12-17T20:57:11.767Z,-7.69
2022-12-17T20:59:38.631Z,-7.75
2022-12-17T21:02:05.620Z,-7.82
2022-12-17T21:04:32.516Z,-7.86
2022-12-17T21:06:59.322Z,-7.86
2022-12-17T21:09:26.134Z,-7.88
2022-12-17T21:11:53.106Z,-7.93
2022-12-17T21:14:19.908Z,-7.97
2022-12-17T21:16:46.809Z,-8.06
2022-12-17T21:19:15.502Z,-8.13
2022-12-17T21:21:42.490Z,-8.15
2022-12-17T21:24:09.931Z,-8.13
2022-12-17T21:26:38.576Z,-8.17
2022-12-17T21:29:06.300Z,-8.21
2022-12-17T21:31:35.342Z,-8.21
2022-12-17T21:34:03.722Z,-8.20
2022-12-17T21:36:32.238Z,-8.23
2022-12-17T21:38:59.310Z,-8.25
2022-12-17T21:41:27.814Z,-8.33
2022-12-17T21:43:59.118Z,-8.37
2022-12-17T21:46:29.606Z,-8.40
2022-12-17T21:48:57.570Z,-8.43
2022-12-17T21:51:24.449Z,-8.51
2022-12-17T21:53:55.856Z,-8.52
2022-12-17T21:56:23.246Z,-8.54
2022-12-17T22:03:06.103Z,-8.58
2022-12-17T22:05:37.941Z,-8.68
2022-12-17T22:08:04.971Z,-8.72
2022-12-17T22:10:35.928Z,-9.66
2022-12-17T22:13:29.688Z,-8.69
2022-12-17T22:15:56.615Z,-8.66
2022-12-17T22:18:24.922Z,-8.67
2022-12-17T22:20:58.453Z,-8.64
2022-12-17T22:23:25.585Z,-8.74
2022-12-17T22:25:52.812Z,-8.71
2022-12-17T22:28:19.659Z,-8.69
2022-12-17T22:31:05.341Z,-8.71
2022-12-17T22:33:56.769Z,-8.74
2022-12-17T22:38:48.935Z,-8.75
2022-12-17T22:44:33.847Z,-8.77
2022-12-17T22:44:39.039Z,-8.81
2022-12-17T22:45:09.757Z,-8.76
2022-12-17T22:47:37.756Z,-8.75
2022-12-17T22:50:04.776Z,-8.78
2022-12-17T22:52:32.512Z,-8.82
2022-12-17T22:54:59.516Z,-8.82
2022-12-17T22:57:36.204Z,-8.86
2022-12-17T23:00:07.331Z,-8.90
2022-12-17T23:02:34.198Z,-8.93
2022-12-17T23:05:01.044Z,-8.90
2022-12-17T23:07:31.752Z,-8.90
2022-12-17T23:09:59.004Z,-8.96
2022-12-17T23:12:44.548Z,-8.99
2022-12-17T23:15:11.404Z,-8.96
2022-12-17T23:17:38.226Z,-9.01
2022-12-17T23:20:05.286Z,-9.01
2022-12-17T23:22:32.103Z,-8.91
2022-12-17T23:24:58.935Z,-8.93
2022-12-17T23:27:25.850Z,-8.95
2022-12-17T23:29:52.664Z,-8.96
2022-12-17T23:32:19.584Z,-9.01
2022-12-17T23:34:46.397Z,-9.04
2022-12-17T23:37:13.204Z,-9.03
2022-12-17T23:39:40.066Z,-9.12
2022-12-17T23:42:06.988Z,-9.15
2022-12-17T23:44:33.801Z,-9.12
2022-12-17T23:47:00.723Z,-9.12
2022-12-17T23:49:27.544Z,-9.15
2022-12-17T23:51:54.401Z,-9.14
2022-12-17T23:54:21.224Z,-9.13
2022-12-17T23:56:48.072Z,-9.11
2022-12-17T23:59:14.891Z,-9.13
